createdAt,value
2022-09-13T00:01:13.967Z,5.45
2022-09-13T00:07:01.606Z,6.05
2022-09-13T00:45:02.276Z,4.80
2022-09-13T00:47:57.318Z,4.30
2022-09-13T00:50:49.108Z,4.55
2022-09-13T00:53:28.339Z,5.18
2022-09-13T00:56:15.854Z,4.25
2022-09-13T00:58:54.700Z,4.97
2022-09-13T01:01:25.779Z,4.25
2022-09-13T01:04:04.660Z,4.32
2022-09-13T01:09:54.532Z,4.60
2022-09-13T01:12:47.646Z,4.25
2022-09-13T01:15:16.898Z,4.30
2022-09-13T01:18:06.922Z,4.63
2022-09-13T01:20:58.724Z,4.70
2022-09-13T01:23:50.376Z,4.40
2022-09-13T01:32:15.184Z,3.90
2022-09-13T01:38:12.776Z,5.28
2022-09-13T01:41:04.824Z,6.20
2022-09-13T01:44:05.664Z,4.43
2022-09-13T01:50:09.151Z,3.80
2022-09-13T01:52:38.522Z,3.75
2022-09-13T01:55:35.671Z,4.50
2022-09-13T01:58:14.471Z,3.65
2022-09-13T02:07:18.063Z,4.57
2022-09-13T02:10:21.744Z,3.90
2022-09-13T02:12:54.598Z,3.78
2022-09-13T02:15:35.815Z,3.88
2022-09-13T02:18:11.504Z,3.92
2022-09-13T02:21:04.696Z,4.03
2022-09-13T02:23:40.760Z,3.97
2022-09-13T02:26:10.552Z,4.03
2022-09-13T02:28:57.965Z,4.38
2022-09-13T02:31:56.881Z,3.70
2022-09-13T02:34:26.842Z,3.85
2022-09-13T02:37:20.595Z,4.40
2022-09-13T02:40:17.054Z,3.95
2022-09-13T02:43:02.914Z,6.28
2022-09-13T02:46:03.774Z,5.15
2022-09-13T02:48:48.507Z,5.87
2022-09-13T02:51:21.370Z,5.32
2022-09-13T02:54:06.795Z,4.63
2022-09-13T02:56:57.516Z,5.50
2022-09-13T02:59:26.067Z,7.35
2022-09-13T03:02:00.179Z,6.40
2022-09-13T03:04:34.389Z,3.97
2022-09-13T03:07:07.952Z,4.75
2022-09-13T03:09:41.800Z,3.80
2022-09-13T03:12:32.073Z,3.75
2022-09-13T03:15:19.404Z,3.90
2022-09-13T03:18:18.338Z,3.50
2022-09-13T03:21:12.223Z,3.88
2022-09-13T03:24:18.612Z,4.25
2022-09-13T03:27:01.719Z,4.70
2022-09-13T03:29:58.309Z,4.40
2022-09-13T03:32:32.505Z,3.88
2022-09-13T03:35:08.352Z,4.15
2022-09-13T03:38:06.262Z,3.67
2022-09-13T03:40:52.679Z,3.45
2022-09-13T03:43:36.951Z,4.43
2022-09-13T03:46:19.491Z,4.50
2022-09-13T03:49:05.233Z,4.40
2022-09-13T03:51:55.321Z,4.00
2022-09-13T03:57:45.945Z,3.65
2022-09-13T04:03:32.945Z,4.05
2022-09-13T04:15:20.616Z,3.53
2022-09-13T04:18:09.766Z,3.70
2022-09-13T04:21:01.822Z,3.05
2022-09-13T04:26:56.784Z,3.85
2022-09-13T04:29:26.862Z,3.38
2022-09-13T04:32:32.808Z,3.35
2022-09-13T04:35:27.850Z,3.80
2022-09-13T04:38:24.409Z,3.35
2022-09-13T04:41:03.868Z,3.20
2022-09-13T04:44:09.826Z,3.50
2022-09-13T04:49:53.075Z,3.38
2022-09-13T04:52:54.468Z,3.90
2022-09-13T04:55:41.686Z,3.72
2022-09-13T04:58:19.756Z,3.35
2022-09-13T05:01:15.979Z,3.20
2022-09-13T05:04:08.216Z,3.55
2022-09-13T05:06:50.313Z,4.18
2022-09-13T05:12:38.750Z,3.92
2022-09-13T05:15:38.444Z,3.80
2022-09-13T05:18:09.253Z,3.17
2022-09-13T05:23:51.460Z,3.42
2022-09-13T05:26:59.058Z,3.92
2022-09-13T05:29:56.430Z,3.45
2022-09-13T05:32:31.920Z,3.25
2022-09-13T05:35:25.125Z,3.30
2022-09-13T05:38:01.996Z,4.10
2022-09-13T05:40:37.277Z,3.83
2022-09-13T05:43:34.876Z,3.88
2022-09-13T07:26:55.701Z,7.72
2022-09-13T18:08:01.945Z,3.95
2022-09-13T18:13:48.343Z,3.80
2022-09-13T18:19:45.854Z,3.65
2022-09-13T18:22:21.831Z,3.42
2022-09-13T18:25:07.249Z,3.85
2022-09-13T18:27:45.416Z,4.18
2022-09-13T18:30:20.217Z,3.70
2022-09-13T18:32:56.581Z,3.83
2022-09-13T18:35:32.134Z,3.50
2022-09-13T18:38:18.228Z,3.58
2022-09-13T18:41:32.086Z,4.07
2022-09-13T18:44:01.285Z,3.67
2022-09-13T18:49:42.238Z,3.97
2022-09-13T18:52:13.846Z,4.35
2022-09-13T18:54:44.794Z,4.38
2022-09-13T18:57:30.699Z,4.30
2022-09-13T19:00:12.290Z,4.50
2022-09-13T19:03:11.140Z,4.95
2022-09-13T19:05:41.181Z,4.25
2022-09-13T19:08:14.697Z,4.53
2022-09-13T19:10:43.452Z,5.28
2022-09-13T19:13:13.516Z,5.45
2022-09-13T19:15:51.528Z,5.30
2022-09-13T19:18:45.555Z,5.68
2022-09-13T19:21:14.959Z,6.18
2022-09-13T19:24:00.986Z,5.20
2022-09-13T19:26:46.553Z,5.43
2022-09-13T19:29:17.125Z,5.60
2022-09-13T19:31:46.626Z,5.55
2022-09-13T19:34:33.146Z,5.82
2022-09-13T19:37:21.366Z,6.13
2022-09-13T19:39:51.192Z,5.88
2022-09-13T20:00:12.924Z,5.00
2022-09-13T20:18:28.330Z,5.18
2022-09-13T20:21:34.559Z,5.10
2022-09-13T20:24:12.191Z,4.68
2022-09-13T20:26:54.605Z,4.60
2022-09-13T20:29:36.992Z,3.97
2022-09-13T20:32:17.294Z,4.30
2022-09-13T20:35:07.956Z,4.40
2022-09-13T20:37:47.886Z,4.20
2022-09-13T20:40:24.652Z,4.82
2022-09-13T20:43:09.436Z,5.43
2022-09-13T20:45:57.799Z,5.10
2022-09-13T20:48:36.916Z,5.28
2022-09-13T20:57:48.223Z,4.97
2022-09-13T21:06:25.800Z,5.63
2022-09-13T21:09:04.999Z,6.00
2022-09-13T21:11:36.649Z,5.57
2022-09-13T21:17:17.294Z,5.82
2022-09-13T21:20:04.089Z,5.40
2022-09-13T21:22:57.184Z,5.32
2022-09-13T21:25:25.415Z,5.35
2022-09-13T21:27:54.794Z,5.13
2022-09-13T21:30:39.427Z,4.53
2022-09-13T21:33:29.274Z,4.93
2022-09-13T21:36:04.144Z,4.57
2022-09-13T21:38:35.056Z,4.90
2022-09-13T21:41:19.114Z,4.70
2022-09-13T21:47:03.136Z,4.10
2022-09-13T21:49:31.010Z,4.28
2022-09-13T21:52:30.072Z,4.18
2022-09-13T21:55:03.715Z,4.18
2022-09-13T21:57:40.064Z,4.43
2022-09-13T22:00:24.526Z,4.88
2022-09-13T22:02:52.537Z,3.90
2022-09-13T22:05:35.500Z,4.00
2022-09-13T22:08:04.351Z,3.78
2022-09-13T22:10:46.904Z,4.50
2022-09-13T22:23:36.530Z,3.90
2022-09-13T22:26:12.522Z,3.97
2022-09-13T22:28:45.260Z,4.20
2022-09-13T22:31:18.801Z,3.72
2022-09-13T22:33:55.945Z,4.03
2022-09-13T22:43:15.494Z,3.80
2022-09-13T22:45:50.298Z,3.67
2022-09-13T22:51:38.050Z,3.83
2022-09-13T22:54:07.448Z,4.15
2022-09-13T22:56:44.219Z,4.25
2022-09-13T22:59:24.751Z,4.10
2022-09-13T23:02:24.572Z,3.60
2022-09-13T23:05:09.559Z,4.18
2022-09-13T23:10:55.593Z,3.97
2022-09-13T23:13:24.659Z,3.20
2022-09-13T23:16:06.103Z,3.40
2022-09-13T23:21:53.495Z,3.97
2022-09-13T23:27:39.740Z,3.50
2022-09-13T23:30:08.096Z,3.50
2022-09-13T23:32:42.391Z,3.17
2022-09-13T23:35:11.213Z,3.45
2022-09-13T23:40:52.113Z,3.47
2022-09-13T23:43:26.542Z,4.35
2022-09-13T23:45:57.048Z,4.65
2022-09-13T23:48:34.606Z,4.88
2022-09-13T23:51:10.460Z,4.38
2022-09-13T23:53:59.004Z,4.10
2022-09-13T23:56:38.475Z,4.15
2022-09-13T23:59:12.071Z,4.15
